Time;durP1;ratioP1;P1;durP2;ratioP2;P2;SDS_P1;SDS_P2;PMS_P1;PMS_P2;Temp;Humidity;BMP_temperature;BMP_pressure;BME280_temperature;BME280_humidity;BME280_pressure;Samples;Min_cycle;Max_cycle;Signal;HPM_P1;HPM_P2
2023/05/20 00:00:28;;;;;;;18.83;12.93;;;14.70;99.90;;;;;;9478407;23;20230;-88
2023/05/20 00:04:14;;;;;;;19.00;12.82;;;14.70;99.90;;;;;;9478122;23;20183;-87
2023/05/20 00:08:00;;;;;;;18.73;12.25;;;14.70;99.90;;;;;;9477615;23;20190;-87
2023/05/20 00:11:46;;;;;;;22.35;13.85;;;14.60;99.90;;;;;;9478236;23;20655;-87
2023/05/20 00:15:35;;;;;;;18.67;13.40;;;14.60;99.90;;;;;;9503729;23;20509;-88
2023/05/20 00:19:20;;;;;;;19.52;14.07;;;14.60;99.90;;;;;;9477492;23;20180;-88
2023/05/20 00:23:06;;;;;;;17.92;12.95;;;14.60;99.90;;;;;;9504261;23;20153;-87
2023/05/20 00:26:52;;;;;;;19.48;13.15;;;14.60;99.90;;;;;;9476575;23;20176;-87
2023/05/20 00:30:41;;;;;;;17.95;12.65;;;14.50;99.90;;;;;;9477932;23;20537;-87
2023/05/20 00:34:27;;;;;;;18.42;13.00;;;14.50;99.90;;;;;;9477430;23;20180;-87
2023/05/20 00:38:13;;;;;;;20.20;13.70;;;14.50;99.90;;;;;;9476960;23;20684;-87
2023/05/20 00:42:01;;;;;;;21.30;13.80;;;14.40;99.90;;;;;;9503266;23;20186;-89
2023/05/20 00:45:46;;;;;;;21.30;14.05;;;14.40;99.90;;;;;;9477204;23;20180;-88
2023/05/20 00:49:32;;;;;;;21.58;13.15;;;14.40;99.90;;;;;;9502381;23;20156;-87
2023/05/20 00:53:20;;;;;;;23.17;14.07;;;14.40;99.90;;;;;;9477555;23;20187;-89
2023/05/20 00:57:07;;;;;;;20.10;13.82;;;14.30;99.90;;;;;;9497055;23;20160;-86
2023/05/20 01:00:53;;;;;;;18.48;13.52;;;14.40;99.90;;;;;;9476735;23;20729;-87
2023/05/20 01:04:40;;;;;;;21.77;13.67;;;14.30;99.90;;;;;;9476770;23;20227;-88
2023/05/20 01:08:27;;;;;;;20.20;13.70;;;14.30;99.90;;;;;;9476926;23;20164;-88
2023/05/20 01:12:29;;;;;;;20.37;13.07;;;14.30;99.90;;;;;;9476719;23;20235;-88
2023/05/20 01:16:17;;;;;;;19.92;14.27;;;14.20;99.90;;;;;;9477191;23;20817;-87
2023/05/20 01:20:06;;;;;;;20.50;13.97;;;14.20;99.90;;;;;;9476673;23;20180;-88
2023/05/20 01:23:51;;;;;;;21.50;13.82;;;14.20;99.90;;;;;;9478283;23;20246;-88
2023/05/20 01:27:37;;;;;;;20.13;13.20;;;14.10;99.90;;;;;;9477919;23;20160;-87
2023/05/20 01:31:26;;;;;;;21.48;13.55;;;14.10;99.90;;;;;;9477858;23;20175;-86
2023/05/20 01:35:13;;;;;;;19.80;13.50;;;14.10;99.90;;;;;;9503437;23;20231;-87
2023/05/20 01:39:01;;;;;;;19.00;13.40;;;14.10;99.90;;;;;;9477143;23;20720;-87
2023/05/20 01:42:51;;;;;;;20.33;13.27;;;14.00;99.90;;;;;;9478339;23;20567;-87
2023/05/20 01:46:37;;;;;;;20.42;13.93;;;14.00;99.90;;;;;;9503300;23;20243;-89
2023/05/20 01:50:23;;;;;;;19.00;13.82;;;13.90;99.90;;;;;;9478090;23;20165;-88
2023/05/20 01:54:09;;;;;;;18.63;12.88;;;13.90;99.90;;;;;;9503252;23;20180;-87
2023/05/20 01:57:55;;;;;;;20.08;13.35;;;13.90;99.90;;;;;;9514892;23;20152;-86
2023/05/20 02:01:40;;;;;;;21.30;13.20;;;13.90;99.90;;;;;;9477319;23;20207;-88
2023/05/20 02:05:26;;;;;;;18.83;13.88;;;13.90;99.90;;;;;;9476541;23;20324;-88
2023/05/20 02:09:12;;;;;;;22.25;15.18;;;13.80;99.90;;;;;;9476773;23;20308;-87
2023/05/20 02:12:58;;;;;;;18.05;13.50;;;13.80;99.90;;;;;;9476770;23;20520;-87
2023/05/20 02:16:44;;;;;;;18.77;13.63;;;13.70;99.90;;;;;;9476665;23;20180;-87
2023/05/20 02:20:30;;;;;;;21.65;14.40;;;13.70;99.90;;;;;;9476962;23;20239;-87
2023/05/20 02:24:16;;;;;;;22.33;14.20;;;13.70;99.90;;;;;;9476490;23;20620;-87
2023/05/20 02:28:04;;;;;;;18.55;13.48;;;13.60;99.90;;;;;;9476451;23;20167;-87
2023/05/20 02:31:50;;;;;;;20.57;13.73;;;13.60;99.90;;;;;;9502364;23;20530;-88
2023/05/20 02:35:35;;;;;;;21.95;14.20;;;13.60;99.90;;;;;;9476183;23;20187;-88
2023/05/20 02:39:21;;;;;;;20.23;13.98;;;13.50;99.90;;;;;;9476272;23;20164;-87
2023/05/20 02:43:07;;;;;;;19.63;13.77;;;13.50;99.90;;;;;;9476440;23;20163;-87
2023/05/20 02:46:53;;;;;;;19.98;13.20;;;13.50;99.90;;;;;;9475899;23;20202;-88
2023/05/20 02:50:39;;;;;;;19.08;13.65;;;13.40;99.90;;;;;;9476471;23;20163;-88
2023/05/20 02:54:24;;;;;;;20.17;13.07;;;13.40;99.90;;;;;;9476548;23;20227;-87
2023/05/20 02:58:12;;;;;;;21.67;14.45;;;13.40;99.90;;;;;;9475873;23;20163;-87
2023/05/20 03:01:57;;;;;;;19.13;13.73;;;13.30;99.90;;;;;;9475982;23;20235;-86
2023/05/20 03:05:44;;;;;;;20.40;13.63;;;13.30;99.90;;;;;;9501952;23;20168;-88
2023/05/20 03:09:30;;;;;;;19.00;13.80;;;13.30;99.90;;;;;;9476076;23;20172;-87
2023/05/20 03:13:16;;;;;;;18.63;13.35;;;13.30;99.90;;;;;;9476242;23;20172;-87
2023/05/20 03:17:02;;;;;;;22.85;14.18;;;13.30;99.90;;;;;;9477643;23;20164;-87
2023/05/20 03:20:47;;;;;;;20.23;13.80;;;13.30;99.90;;;;;;9505101;23;20183;-88
2023/05/20 03:24:33;;;;;;;21.80;15.17;;;13.20;99.90;;;;;;9506157;23;20168;-88
2023/05/20 03:28:19;;;;;;;22.45;14.85;;;13.20;99.90;;;;;;9482823;23;20611;-87
2023/05/20 03:32:05;;;;;;;23.87;15.30;;;13.20;99.90;;;;;;9483830;23;20505;-87
2023/05/20 03:35:51;;;;;;;21.98;15.48;;;13.20;99.90;;;;;;9479371;23;20183;-88
2023/05/20 03:39:37;;;;;;;26.27;17.38;;;13.10;99.90;;;;;;9478899;23;20203;-87
2023/05/20 03:43:24;;;;;;;22.30;14.97;;;13.10;99.90;;;;;;9479120;23;20160;-87
2023/05/20 03:47:09;;;;;;;23.08;15.52;;;13.10;99.90;;;;;;9478752;23;20163;-87
2023/05/20 03:50:55;;;;;;;24.80;15.90;;;13.10;99.90;;;;;;9479039;23;20167;-87
2023/05/20 03:54:40;;;;;;;22.70;15.70;;;13.00;99.90;;;;;;9504972;23;20781;-87
2023/05/20 03:58:28;;;;;;;22.63;15.27;;;13.00;99.90;;;;;;9478900;23;20168;-88
2023/05/20 04:02:14;;;;;;;27.80;16.43;;;13.00;99.90;;;;;;9504774;23;20630;-87
2023/05/20 04:06:00;;;;;;;28.60;16.70;;;13.00;99.90;;;;;;9478485;23;20184;-88
2023/05/20 04:09:45;;;;;;;25.93;16.93;;;13.00;99.90;;;;;;9478644;23;20164;-87
2023/05/20 04:13:31;;;;;;;25.60;16.87;;;13.00;99.90;;;;;;9478790;23;20164;-87
2023/05/20 04:17:16;;;;;;;23.00;16.33;;;13.00;99.90;;;;;;9478366;23;20187;-88
2023/05/20 04:21:02;;;;;;;27.13;17.17;;;12.90;99.90;;;;;;9478995;23;20188;-88
2023/05/20 04:24:48;;;;;;;28.57;18.10;;;12.90;99.90;;;;;;9504934;23;20214;-88
2023/05/20 04:28:36;;;;;;;27.17;17.53;;;12.90;99.90;;;;;;9479865;23;20156;-87
2023/05/20 04:32:22;;;;;;;24.33;15.43;;;12.90;99.90;;;;;;9488806;23;20160;-87
2023/05/20 04:36:10;;;;;;;24.07;16.27;;;12.90;99.90;;;;;;9478359;23;20180;-87
2023/05/20 04:39:56;;;;;;;23.90;15.57;;;12.90;99.90;;;;;;9477823;23;20241;-87
2023/05/20 04:43:42;;;;;;;23.63;15.43;;;12.90;99.90;;;;;;9503630;23;20198;-88
2023/05/20 04:47:28;;;;;;;25.07;16.07;;;12.90;99.90;;;;;;9476684;23;20211;-88
2023/05/20 04:51:15;;;;;;;23.23;16.17;;;13.00;99.90;;;;;;9476717;23;20164;-88
2023/05/20 04:55:00;;;;;;;24.00;16.07;;;13.00;99.90;;;;;;9476533;23;20211;-87
2023/05/20 04:58:46;;;;;;;26.67;18.57;;;13.00;99.90;;;;;;9502467;23;20160;-88
2023/05/20 05:02:32;;;;;;;24.73;16.13;;;13.00;99.90;;;;;;9503431;23;20216;-88
2023/05/20 05:06:18;;;;;;;25.20;17.17;;;13.00;99.90;;;;;;9503040;23;20445;-89
2023/05/20 05:10:04;;;;;;;29.13;17.17;;;13.00;99.90;;;;;;9502412;23;20179;-87
2023/05/20 05:13:49;;;;;;;25.23;16.65;;;13.00;99.90;;;;;;9477016;23;20186;-87
2023/05/20 05:17:35;;;;;;;26.07;17.03;;;13.00;99.90;;;;;;9502803;23;20603;-87
2023/05/20 05:21:21;;;;;;;25.97;17.30;;;13.00;99.90;;;;;;9475121;23;20187;-87
2023/05/20 05:25:08;;;;;;;25.73;16.30;;;12.90;99.90;;;;;;9502511;23;20615;-87
2023/05/20 05:28:54;;;;;;;28.52;18.48;;;13.00;99.90;;;;;;9501611;23;20190;-88
2023/05/20 05:32:39;;;;;;;26.47;17.03;;;13.00;99.90;;;;;;9476028;23;20168;-87
2023/05/20 05:36:25;;;;;;;30.30;19.70;;;13.00;99.90;;;;;;9501664;23;20176;-88
2023/05/20 05:40:11;;;;;;;34.20;20.23;;;13.00;99.90;;;;;;9474800;23;20184;-88
2023/05/20 05:43:58;;;;;;;31.90;18.27;;;13.00;99.90;;;;;;9501144;23;20175;-87
2023/05/20 05:47:43;;;;;;;32.80;20.57;;;13.00;99.90;;;;;;9475848;23;20160;-88
2023/05/20 05:51:29;;;;;;;34.70;20.80;;;13.00;99.90;;;;;;9475439;23;20170;-88
2023/05/20 05:55:17;;;;;;;34.87;21.70;;;13.00;99.90;;;;;;9475468;23;20531;-88
2023/05/20 05:59:03;;;;;;;26.93;18.37;;;13.00;99.90;;;;;;9475267;23;20172;-87
2023/05/20 06:02:49;;;;;;;33.40;20.73;;;13.00;99.90;;;;;;9475501;23;20509;-87
2023/05/20 06:06:35;;;;;;;34.67;22.53;;;13.00;99.90;;;;;;9501718;23;20176;-88
2023/05/20 06:10:21;;;;;;;34.73;22.20;;;13.00;99.90;;;;;;9501698;23;20690;-88
2023/05/20 06:14:07;;;;;;;30.57;20.27;;;13.10;99.90;;;;;;9476451;23;20703;-87
2023/05/20 06:17:52;;;;;;;35.10;21.77;;;13.10;99.90;;;;;;9476604;23;20164;-86
2023/05/20 06:21:38;;;;;;;38.70;23.77;;;13.10;99.90;;;;;;9476542;23;20184;-87
2023/05/20 06:25:24;;;;;;;35.50;21.47;;;13.10;99.90;;;;;;9476215;23;20643;-87
2023/05/20 06:29:09;;;;;;;35.37;22.47;;;13.10;99.90;;;;;;9476507;23;20219;-87
2023/05/20 06:32:55;;;;;;;38.40;23.20;;;13.10;99.90;;;;;;9476705;23;20604;-87
2023/05/20 06:36:41;;;;;;;39.03;22.93;;;13.10;99.90;;;;;;9476701;23;20187;-87
2023/05/20 06:40:27;;;;;;;33.47;21.80;;;13.20;99.90;;;;;;9476563;23;20191;-87
2023/05/20 06:44:14;;;;;;;36.73;23.60;;;13.20;99.90;;;;;;9476632;23;20254;-87
2023/05/20 06:47:59;;;;;;;34.50;22.03;;;13.20;99.90;;;;;;9477041;23;20164;-87
2023/05/20 06:51:45;;;;;;;39.03;23.77;;;13.30;99.90;;;;;;9477263;23;20194;-87
2023/05/20 06:55:30;;;;;;;36.00;23.27;;;13.50;99.90;;;;;;9476735;23;20183;-86
2023/05/20 06:59:16;;;;;;;38.13;24.13;;;13.70;99.90;;;;;;9476580;23;20159;-87
2023/05/20 07:03:02;;;;;;;38.77;24.60;;;13.80;99.90;;;;;;9484527;23;20163;-87
2023/05/20 07:06:48;;;;;;;36.67;24.73;;;14.00;99.90;;;;;;9475972;23;20180;-86
2023/05/20 07:10:34;;;;;;;41.47;23.80;;;14.30;99.90;;;;;;9476016;23;20219;-87
2023/05/20 07:14:21;;;;;;;36.63;23.63;;;14.50;99.90;;;;;;9502694;23;20250;-87
2023/05/20 07:18:06;;;;;;;41.50;23.70;;;14.50;99.90;;;;;;9480149;23;20168;-85
2023/05/20 07:21:52;;;;;;;37.77;23.60;;;14.40;99.90;;;;;;9514175;23;20777;-84
2023/05/20 07:25:38;;;;;;;34.93;22.60;;;14.60;99.90;;;;;;9480545;23;20632;-85
2023/05/20 07:29:24;;;;;;;36.80;23.43;;;14.80;99.90;;;;;;9478985;23;20179;-85
2023/05/20 07:33:09;;;;;;;37.53;24.13;;;15.10;99.90;;;;;;9481554;23;20223;-84
2023/05/20 07:36:56;;;;;;;38.40;24.37;;;15.30;99.90;;;;;;9479518;23;20184;-87
2023/05/20 07:40:42;;;;;;;37.40;22.77;;;15.40;99.90;;;;;;9480841;23;20274;-85
2023/05/20 07:44:27;;;;;;;38.10;22.90;;;15.60;99.90;;;;;;9479476;23;20240;-83
2023/05/20 07:48:13;;;;;;;39.63;24.37;;;15.70;99.90;;;;;;9501916;23;20179;-89
2023/05/20 07:51:59;;;;;;;34.27;22.30;;;15.70;99.90;;;;;;9475982;23;20654;-88
2023/05/20 07:55:44;;;;;;;39.10;23.57;;;15.60;99.90;;;;;;9478111;23;20206;-88
2023/05/20 07:59:30;;;;;;;35.37;22.27;;;15.60;99.90;;;;;;9475745;23;20171;-89
2023/05/20 08:03:21;;;;;;;36.95;23.10;;;15.60;99.90;;;;;;9476911;23;20187;-90
2023/05/20 08:07:06;;;;;;;35.13;22.40;;;15.80;99.90;;;;;;9477054;23;20522;-88
2023/05/20 08:10:52;;;;;;;35.37;23.03;;;16.00;99.90;;;;;;9477274;23;20179;-88
2023/05/20 08:14:38;;;;;;;33.42;20.48;;;16.10;99.90;;;;;;9477137;23;20755;-88
2023/05/20 08:18:26;;;;;;;32.45;21.50;;;16.30;99.90;;;;;;9477729;23;20152;-89
2023/05/20 08:22:11;;;;;;;32.08;20.45;;;16.40;99.90;;;;;;9478266;23;20187;-89
2023/05/20 08:26:00;;;;;;;37.13;21.35;;;16.60;99.90;;;;;;9477737;23;20180;-89
2023/05/20 08:29:46;;;;;;;37.20;22.52;;;16.70;99.90;;;;;;9477918;23;20160;-83
2023/05/20 08:33:32;;;;;;;34.33;22.63;;;16.70;99.90;;;;;;9503272;23;20589;-89
2023/05/20 08:37:17;;;;;;;33.30;21.83;;;16.70;99.90;;;;;;9477249;23;20775;-89
2023/05/20 08:41:03;;;;;;;28.95;20.88;;;16.90;99.90;;;;;;9477899;23;20251;-89
2023/05/20 08:44:52;;;;;;;33.20;22.30;;;17.00;99.90;;;;;;9477335;23;20180;-89
2023/05/20 08:48:38;;;;;;;31.58;20.90;;;17.10;99.90;;;;;;9477161;23;20175;-88
2023/05/20 08:52:24;;;;;;;35.42;21.50;;;17.10;99.90;;;;;;9478120;23;20170;-92
2023/05/20 08:56:11;;;;;;;31.48;21.08;;;17.20;99.90;;;;;;9477092;23;20190;-83
2023/05/20 08:59:58;;;;;;;30.08;19.60;;;17.30;99.90;;;;;;9477558;23;20191;-84
2023/05/20 09:03:44;;;;;;;31.73;19.88;;;17.40;99.90;;;;;;9477399;23;20176;-85
2023/05/20 09:07:30;;;;;;;29.95;19.83;;;17.40;99.90;;;;;;9475000;23;20164;-84
2023/05/20 09:11:16;;;;;;;28.38;19.67;;;17.40;99.90;;;;;;9476788;23;20176;-84
2023/05/20 09:15:02;;;;;;;32.75;20.35;;;17.40;99.90;;;;;;9503589;23;20660;-89
2023/05/20 09:18:48;;;;;;;34.55;20.50;;;17.50;99.90;;;;;;9475654;23;20159;-89
2023/05/20 09:22:34;;;;;;;31.67;20.20;;;17.60;99.90;;;;;;9477436;23;20183;-89
2023/05/20 09:26:20;;;;;;;29.77;19.58;;;17.60;99.90;;;;;;9476354;23;20267;-88
2023/05/20 09:30:13;;;;;;;31.77;19.90;;;17.70;99.90;;;;;;9477070;23;20191;-89
2023/05/20 09:34:00;;;;;;;31.05;18.85;;;17.80;99.90;;;;;;9477687;23;20699;-89
2023/05/20 09:37:47;;;;;;;33.15;20.63;;;18.00;99.90;;;;;;9479419;23;20243;-89
2023/05/20 09:41:38;;;;;;;27.35;18.65;;;18.10;99.90;;;;;;9476632;23;20554;-89
2023/05/20 09:45:23;;;;;;;31.63;19.75;;;18.20;99.90;;;;;;9476805;23;20180;-89
2023/05/20 09:49:11;;;;;;;34.78;20.85;;;18.20;99.90;;;;;;9476892;23;20159;-89
2023/05/20 09:53:02;;;;;;;29.90;20.20;;;18.20;99.90;;;;;;9476877;23;20251;-89
2023/05/20 09:56:49;;;;;;;32.78;19.35;;;18.20;99.90;;;;;;9502014;23;20206;-88
2023/05/20 10:00:35;;;;;;;33.08;19.92;;;18.10;99.90;;;;;;9503051;23;20183;-89
2023/05/20 10:04:23;;;;;;;28.10;18.42;;;18.10;99.90;;;;;;9501970;23;20179;-89
2023/05/20 10:08:33;;;;;;;32.10;18.90;;;18.10;99.90;;;;;;9473674;23;20145;-89
2023/05/20 10:12:37;;;;;;;25.02;18.08;;;18.20;99.90;;;;;;9460370;23;20181;-89
2023/05/20 10:16:50;;;;;;;27.25;18.33;;;18.30;99.90;;;;;;9475271;23;20526;-86
2023/05/20 10:20:49;;;;;;;33.53;17.83;;;18.50;99.90;;;;;;9475276;23;20248;-84
2023/05/20 10:24:37;;;;;;;28.85;18.63;;;18.60;99.90;;;;;;9501465;23;20171;-84
2023/05/20 10:28:31;;;;;;;27.92;18.02;;;18.60;99.90;;;;;;9476437;23;20156;-83
2023/05/20 10:32:28;;;;;;;23.90;17.48;;;18.70;99.90;;;;;;9479515;23;20160;-86
2023/05/20 10:36:29;;;;;;;29.08;18.42;;;18.70;99.90;;;;;;9501286;23;20198;-89
2023/05/20 10:40:19;;;;;;;27.20;17.80;;;18.80;99.90;;;;;;9474430;23;20218;-90
2023/05/20 10:44:05;;;;;;;29.58;19.35;;;18.90;99.90;;;;;;9475213;23;20183;-89
2023/05/20 10:47:56;;;;;;;29.38;18.55;;;18.90;99.90;;;;;;9477462;23;20187;-89
2023/05/20 10:51:44;;;;;;;34.28;18.30;;;19.00;99.90;;;;;;9475739;23;20226;-85
2023/05/20 10:55:38;;;;;;;28.23;17.77;;;19.10;99.90;;;;;;9477104;23;20187;-86
2023/05/20 10:59:25;;;;;;;28.65;18.23;;;19.10;99.90;;;;;;9501362;23;20140;-89
2023/05/20 11:03:13;;;;;;;31.95;18.70;;;19.10;99.90;;;;;;9500424;23;20235;-89
2023/05/20 11:06:59;;;;;;;26.52;18.38;;;19.20;99.90;;;;;;9475435;23;20469;-89
2023/05/20 11:10:44;;;;;;;24.92;18.60;;;19.20;99.90;;;;;;9475125;23;20183;-90
2023/05/20 11:14:30;;;;;;;25.45;17.42;;;19.40;99.90;;;;;;9477044;23;20675;-89
2023/05/20 11:18:16;;;;;;;26.95;17.80;;;19.50;99.90;;;;;;9502395;23;20156;-88
2023/05/20 11:22:02;;;;;;;23.30;16.73;;;19.50;99.90;;;;;;9476039;23;20187;-89
2023/05/20 11:25:49;;;;;;;30.05;17.73;;;19.60;99.90;;;;;;9478104;23;20176;-89
2023/05/20 11:29:35;;;;;;;26.05;17.38;;;19.60;99.90;;;;;;9477086;23;20166;-89
2023/05/20 11:33:26;;;;;;;23.25;16.85;;;19.60;99.90;;;;;;9476010;23;20674;-90
2023/05/20 11:37:12;;;;;;;23.92;17.23;;;19.60;99.90;;;;;;9477320;23;20151;-90
2023/05/20 11:40:58;;;;;;;22.65;16.40;;;19.80;99.90;;;;;;9479798;23;20190;-90
2023/05/20 11:44:44;;;;;;;24.70;16.27;;;19.90;99.90;;;;;;9482228;23;20176;-90
2023/05/20 11:48:29;;;;;;;23.85;16.85;;;20.00;99.90;;;;;;9477178;23;20573;-90
2023/05/20 11:52:15;;;;;;;24.90;16.95;;;20.10;99.90;;;;;;9477820;23;20518;-91
2023/05/20 11:56:01;;;;;;;24.17;16.50;;;20.20;99.90;;;;;;9501787;23;20176;-90
2023/05/20 11:59:47;;;;;;;22.25;16.42;;;20.30;99.90;;;;;;9477632;23;20184;-90
2023/05/20 12:03:33;;;;;;;24.42;16.58;;;20.40;99.90;;;;;;9478669;23;20625;-90
2023/05/20 12:07:19;;;;;;;21.63;16.15;;;20.40;99.90;;;;;;9478356;23;20183;-89
2023/05/20 12:11:04;;;;;;;23.02;16.13;;;20.40;99.90;;;;;;9482765;23;20179;-90
2023/05/20 12:14:50;;;;;;;22.77;16.48;;;20.50;99.90;;;;;;9477863;23;20215;-90
2023/05/20 12:18:36;;;;;;;24.75;16.35;;;20.60;99.90;;;;;;9478386;23;20164;-90
2023/05/20 12:22:22;;;;;;;31.58;17.35;;;20.70;99.90;;;;;;9478633;23;20537;-89
2023/05/20 12:26:07;;;;;;;24.95;17.33;;;20.70;99.90;;;;;;9478797;23;20288;-90
2023/05/20 12:29:53;;;;;;;24.25;16.42;;;20.60;99.90;;;;;;9479739;23;20152;-90
2023/05/20 12:33:38;;;;;;;24.63;16.25;;;20.60;99.90;;;;;;9476084;23;20191;-90
2023/05/20 12:37:24;;;;;;;23.02;15.95;;;20.70;99.90;;;;;;9476544;23;20164;-90
2023/05/20 12:41:10;;;;;;;23.23;15.75;;;20.70;99.90;;;;;;9503230;23;20183;-91
2023/05/20 12:44:56;;;;;;;25.00;16.13;;;20.50;99.90;;;;;;9504825;23;20223;-91
2023/05/20 12:48:41;;;;;;;24.45;16.70;;;20.50;99.90;;;;;;9478279;23;20180;-90
2023/05/20 12:52:27;;;;;;;25.15;14.95;;;20.50;99.90;;;;;;9478605;23;20167;-90
2023/05/20 12:56:13;;;;;;;23.10;15.57;;;20.40;99.90;;;;;;9478862;23;20186;-90
2023/05/20 12:59:58;;;;;;;19.63;15.30;;;20.30;99.90;;;;;;9479493;23;20259;-90
2023/05/20 13:03:44;;;;;;;18.50;14.45;;;20.30;99.90;;;;;;9503856;23;20246;-90
2023/05/20 13:07:31;;;;;;;20.15;15.80;;;20.30;99.90;;;;;;9504190;23;20163;-90
2023/05/20 13:11:17;;;;;;;19.48;14.82;;;20.40;99.90;;;;;;9477768;23;20176;-89
2023/05/20 13:15:03;;;;;;;24.02;15.75;;;20.50;99.90;;;;;;9477142;23;20190;-90
2023/05/20 13:18:49;;;;;;;18.95;13.90;;;20.70;99.90;;;;;;9478237;23;20183;-91
2023/05/20 13:22:35;;;;;;;19.42;14.10;;;20.90;99.90;;;;;;9476816;23;20184;-90
2023/05/20 13:26:21;;;;;;;23.23;14.50;;;21.00;99.90;;;;;;9475864;23;20184;-89
2023/05/20 13:30:07;;;;;;;18.70;14.13;;;21.10;99.90;;;;;;9476534;23;20166;-89
2023/05/20 13:33:54;;;;;;;21.65;15.63;;;21.10;99.90;;;;;;9504532;23;20179;-89
2023/05/20 13:37:39;;;;;;;20.23;15.10;;;21.00;99.90;;;;;;9476961;23;20156;-89
2023/05/20 13:41:29;;;;;;;20.50;14.90;;;21.00;99.90;;;;;;9478495;23;20180;-89
2023/05/20 13:45:14;;;;;;;19.42;14.15;;;20.90;99.90;;;;;;9503723;23;20172;-89
2023/05/20 13:49:00;;;;;;;20.15;14.32;;;20.90;99.90;;;;;;9476796;23;20171;-89
2023/05/20 13:52:46;;;;;;;20.98;14.55;;;21.00;99.90;;;;;;9505776;23;20601;-87
2023/05/20 13:56:31;;;;;;;18.33;14.20;;;21.10;99.90;;;;;;9476159;23;20184;-85
2023/05/20 14:00:17;;;;;;;27.13;14.88;;;21.20;99.90;;;;;;9501562;23;20259;-85
2023/05/20 14:04:03;;;;;;;25.70;14.77;;;21.20;99.90;;;;;;9476468;23;20491;-85
2023/05/20 14:07:48;;;;;;;23.35;14.48;;;21.30;99.90;;;;;;9477273;23;20255;-85
2023/05/20 14:11:34;;;;;;;24.70;14.50;;;21.30;99.90;;;;;;9475301;23;20184;-85
2023/05/20 14:15:20;;;;;;;20.52;14.15;;;21.30;99.90;;;;;;9500877;23;20180;-86
2023/05/20 14:19:05;;;;;;;19.48;14.45;;;21.30;99.90;;;;;;9474914;23;20199;-89
2023/05/20 14:22:52;;;;;;;21.52;15.93;;;21.30;99.90;;;;;;9475810;23;20179;-89
2023/05/20 14:26:37;;;;;;;27.48;16.52;;;21.30;99.90;;;;;;9475122;23;20176;-89
2023/05/20 14:30:23;;;;;;;25.27;17.40;;;21.30;99.90;;;;;;9475941;23;20612;-89
2023/05/20 14:34:09;;;;;;;26.35;17.08;;;21.30;99.90;;;;;;9476840;23;20646;-90
2023/05/20 14:37:55;;;;;;;24.88;16.88;;;21.20;99.90;;;;;;9475589;23;20493;-88
2023/05/20 14:41:40;;;;;;;22.92;16.35;;;21.20;99.90;;;;;;9476718;23;20184;-88
2023/05/20 14:45:26;;;;;;;21.85;15.90;;;21.00;99.90;;;;;;9482991;23;20631;-89
2023/05/20 14:49:12;;;;;;;24.80;16.00;;;21.00;99.90;;;;;;9476190;23;20166;-89
2023/05/20 14:52:57;;;;;;;21.30;15.32;;;21.00;99.90;;;;;;9475306;23;20721;-89
2023/05/20 14:56:43;;;;;;;23.35;16.45;;;21.00;99.90;;;;;;9499803;23;20184;-86
2023/05/20 15:00:29;;;;;;;26.88;16.83;;;21.10;99.90;;;;;;9475898;23;20195;-85
2023/05/20 15:04:14;;;;;;;24.27;16.48;;;21.20;99.90;;;;;;9500791;23;20281;-85
2023/05/20 15:08:00;;;;;;;20.70;15.52;;;21.20;99.90;;;;;;9474699;23;20515;-84
2023/05/20 15:11:46;;;;;;;29.10;16.85;;;21.30;99.90;;;;;;9502243;23;20178;-85
2023/05/20 15:15:33;;;;;;;20.88;15.82;;;21.30;99.90;;;;;;9500327;23;20172;-90
2023/05/20 15:19:18;;;;;;;22.42;15.73;;;21.30;99.90;;;;;;9476990;23;20262;-87
2023/05/20 15:23:04;;;;;;;22.60;16.40;;;21.30;99.90;;;;;;9476235;23;20184;-90
2023/05/20 15:26:50;;;;;;;25.05;16.88;;;21.30;99.70;;;;;;9474862;23;20218;-88
2023/05/20 15:30:37;;;;;;;21.23;16.27;;;21.20;99.90;;;;;;9475983;23;20168;-89
2023/05/20 15:34:23;;;;;;;22.90;16.73;;;21.20;99.70;;;;;;9474575;23;20518;-88
2023/05/20 15:38:08;;;;;;;26.27;16.77;;;21.20;99.70;;;;;;9475149;23;20170;-88
2023/05/20 15:41:55;;;;;;;28.20;17.13;;;21.10;99.80;;;;;;9476012;23;20691;-89
2023/05/20 15:45:40;;;;;;;28.63;17.05;;;21.10;99.90;;;;;;9476934;23;20255;-89
2023/05/20 15:49:26;;;;;;;22.67;17.42;;;21.20;99.90;;;;;;9476387;23;20160;-89
2023/05/20 15:53:14;;;;;;;26.55;18.25;;;21.10;99.90;;;;;;9475389;23;20164;-89
2023/05/20 15:57:01;;;;;;;25.20;17.33;;;21.00;99.80;;;;;;9475972;23;20259;-89
2023/05/20 16:00:48;;;;;;;24.58;17.45;;;21.00;99.90;;;;;;9475264;23;20187;-88
2023/05/20 16:04:34;;;;;;;24.50;16.90;;;21.10;99.90;;;;;;9475198;23;20376;-89
2023/05/20 16:08:22;;;;;;;22.50;16.15;;;21.10;99.90;;;;;;9475264;23;20184;-88
2023/05/20 16:12:08;;;;;;;23.30;17.25;;;21.00;99.80;;;;;;9476267;23;20179;-91
2023/05/20 16:15:56;;;;;;;22.63;17.45;;;21.00;99.70;;;;;;9476133;23;20179;-89
2023/05/20 16:19:42;;;;;;;25.48;18.38;;;21.00;99.60;;;;;;9475251;23;20195;-89
2023/05/20 16:23:27;;;;;;;27.40;18.45;;;20.90;99.70;;;;;;9475121;23;20183;-89
2023/05/20 16:27:14;;;;;;;23.05;17.45;;;20.80;99.90;;;;;;9477504;23;20160;-88
2023/05/20 16:31:00;;;;;;;24.98;18.30;;;20.80;99.90;;;;;;9479308;23;20171;-87
2023/05/20 16:34:46;;;;;;;23.38;17.58;;;20.80;99.90;;;;;;9478119;23;20200;-89
2023/05/20 16:38:33;;;;;;;20.13;16.50;;;20.80;99.90;;;;;;9504750;23;20266;-89
2023/05/20 16:42:18;;;;;;;23.00;17.48;;;20.80;99.90;;;;;;9478145;23;20188;-88
2023/05/20 16:46:04;;;;;;;23.20;17.52;;;20.90;99.90;;;;;;9503841;23;20227;-88
2023/05/20 16:49:50;;;;;;;21.95;16.88;;;20.90;99.90;;;;;;9505277;23;20272;-89
2023/05/20 16:53:36;;;;;;;22.27;17.38;;;20.90;99.90;;;;;;9480236;23;20830;-88
2023/05/20 16:57:21;;;;;;;20.58;15.80;;;20.80;99.80;;;;;;9479633;23;20160;-88
2023/05/20 17:01:07;;;;;;;20.17;15.38;;;20.80;99.90;;;;;;9476829;23;20219;-88
2023/05/20 17:04:53;;;;;;;22.42;15.73;;;20.80;99.90;;;;;;9477943;23;20176;-88
2023/05/20 17:08:38;;;;;;;21.90;14.93;;;20.90;99.90;;;;;;9503752;23;20223;-89
2023/05/20 17:12:24;;;;;;;18.95;15.32;;;20.80;99.90;;;;;;9503503;23;20180;-89
2023/05/20 17:16:11;;;;;;;18.33;14.48;;;20.80;99.90;;;;;;9479485;23;20318;-88
2023/05/20 17:19:56;;;;;;;19.77;13.23;;;20.80;99.90;;;;;;9488475;23;20226;-89
2023/05/20 17:23:42;;;;;;;17.08;13.20;;;20.70;99.90;;;;;;9477352;23;20235;-89
2023/05/20 17:27:28;;;;;;;18.60;13.10;;;20.70;99.90;;;;;;9476865;23;20172;-87
2023/05/20 17:31:14;;;;;;;18.50;13.18;;;20.60;99.90;;;;;;9476482;23;20187;-87
2023/05/20 17:35:00;;;;;;;17.67;12.82;;;20.60;99.90;;;;;;9502587;23;20250;-91
2023/05/20 17:38:45;;;;;;;16.60;13.20;;;20.50;99.90;;;;;;9477574;23;20231;-88
2023/05/20 17:42:31;;;;;;;17.92;13.90;;;20.50;99.90;;;;;;9476833;23;20191;-89
2023/05/20 17:46:19;;;;;;;23.00;14.40;;;20.40;99.90;;;;;;9477520;23;20806;-88
2023/05/20 17:50:06;;;;;;;18.35;13.70;;;20.40;99.90;;;;;;9502630;23;20148;-88
2023/05/20 17:53:51;;;;;;;20.80;13.48;;;20.40;99.90;;;;;;9476935;23;20207;-87
2023/05/20 17:57:37;;;;;;;16.48;12.60;;;20.40;99.90;;;;;;9502742;23;20171;-88
2023/05/20 18:01:23;;;;;;;20.73;14.50;;;20.30;99.90;;;;;;9476269;23;20207;-88
2023/05/20 18:05:09;;;;;;;17.80;13.90;;;20.30;99.90;;;;;;9502898;23;20172;-88
2023/05/20 18:08:55;;;;;;;17.92;13.13;;;20.20;99.90;;;;;;9475968;23;20156;-88
2023/05/20 18:12:41;;;;;;;18.08;13.88;;;20.20;99.90;;;;;;9475348;23;20214;-87
2023/05/20 18:16:28;;;;;;;17.50;11.93;;;20.10;99.90;;;;;;9476835;23;20234;-88
2023/05/20 18:20:14;;;;;;;16.52;12.35;;;20.00;99.90;;;;;;9476593;23;20187;-87
2023/05/20 18:24:00;;;;;;;14.73;12.20;;;20.10;99.90;;;;;;9501789;23;20195;-88
2023/05/20 18:27:45;;;;;;;16.67;12.32;;;20.00;99.90;;;;;;9502234;23;20143;-88
2023/05/20 18:31:31;;;;;;;14.70;11.95;;;20.00;99.90;;;;;;9476154;23;20156;-88
2023/05/20 18:35:19;;;;;;;14.43;11.52;;;20.00;99.90;;;;;;9502520;23;20242;-88
2023/05/20 18:39:06;;;;;;;14.98;11.48;;;20.00;99.90;;;;;;9477391;23;20157;-86
2023/05/20 18:42:52;;;;;;;14.88;11.55;;;20.00;99.90;;;;;;9477738;23;20188;-88
2023/05/20 18:46:37;;;;;;;13.98;10.93;;;19.90;99.90;;;;;;9504518;23;20200;-89
2023/05/20 18:50:23;;;;;;;15.68;11.80;;;19.90;99.90;;;;;;9483820;23;20156;-88
2023/05/20 18:54:09;;;;;;;17.00;12.13;;;19.90;99.90;;;;;;9488711;23;20186;-87
2023/05/20 18:57:55;;;;;;;16.05;12.43;;;19.90;99.90;;;;;;9483375;23;20160;-88
2023/05/20 19:01:40;;;;;;;13.52;11.68;;;19.90;99.90;;;;;;9512802;23;20172;-87
2023/05/20 19:05:26;;;;;;;14.07;11.70;;;19.70;99.90;;;;;;9487735;23;20176;-87
2023/05/20 19:09:11;;;;;;;14.25;11.63;;;19.70;99.90;;;;;;9485378;23;20179;-87